Port Hope, MI

5:40 PM EDT on September 17, 2014 (GMT -0400)
Port Hope | Change Station
CLOSE
Current Station
Airport
Location: Port Hope,
Elevation: 587 ft
Nearby Weather Stations

Elev 587 ft 44.02 °N, 82.79 °W | Updated 49 minutes ago

Partly Cloudy
Partly Cloudy
67 °F
Feels Like 67 °F
N
8
Wind Variable Wind from WSW
Gusts 12 mph

Today
High -- | Low -- °F
--% Chance of Precip.
Yesterday
High -- | Low -- °F
Precip. -- in
7:12 AM 7:37 PM
Waning Crescent, 33% visible
Pressure 29.94 in
Visibility -9999.0 miles
Clouds
Dew Point 46 °F
Humidity 47%
Rainfall 0.00 in
Snow Depth Not available.
UV Not available.
Pollen 4.30 out of 12
Ozone Good
PM2.5 Good
Flu Activity Not available.
METAR KP58 172051Z AUTO 25007KT 210V270 19/08 A2994 RMK AO1 SLP137 T01940078 58006

More Conditions Fewer Conditions

Pressure 29.94 in
Visibility -9999.0 miles
Clouds
Dew Point 46 °F
Humidity 47%
Rainfall 0.00 in
Snow Depth Not available.
UV Not available.
Pollen 4.30 out of 12
Ozone Good
PM2.5 Good
Flu Activity Not available.
METAR KP58 172051Z AUTO 25007KT 210V270 19/08 A2994 RMK AO1 SLP137 T01940078 58006

More Conditions Fewer Conditions

10-Day Weather Forecast

Almanac

Astronomy

Sep. 17, 2014 Rise Set
Actual Time 7:12 AM EDT 7:37 PM EDT
Civil Twilight 6:43 AM EDT 8:06 PM EDT
Nautical Twilight 6:09 AM EDT 8:40 PM EDT
Astronomical Twilight 5:34 AM EDT 9:15 PM EDT
Moon 1:02 AM EDT 3:55 PM EDT
Length of Visible Light 13h 22m
Length of Day
12h 25m
Tomorrow will be 3m 0s shorter.
Waning Crescent, 33% of the Moon is Illuminated
Today
Waning Crescent
Sep 24
New
Oct 1
First Quarter
Oct 8
Full
Oct 15
Last Quarter

Today's Extremes

State Highs State Lows

Community

WunderPhotos

Upload Photos

1,754,171 photos uploaded!

Nearby

Air Quality

  Air Quality AQ Index Pollutant
Yesterday Good
OZONE
Yesterday Good
PM2.5
Current Good
OZONE
Current Good
PM2.5
Wednesday Good
OZONE
Wednesday Good
PM2.5
Thursday Good
OZONE
Thursday Good
PM2.5
Friday Good
OZONE
Friday Good
PM2.5
Saturday Good
OZONE
Saturday Good
PM2.5

Snow Depth

Station Depth Elevation
No new snow has been reported.

Earthquake Activity

City Distance Mag. Time & Date
No recent earthquake activity has been reported nearby.
Minimum magnitude displayed is 2.5.

Coastal Water Temperatures

Place Temperature
Harbor Beach, MI 59.0 °F

Nearby Weather Stations